createdAt,value
2017-12-30T00:00:10.425Z,76.63
2017-12-30T00:00:50.989Z,76.82
2017-12-30T00:01:31.562Z,77.1
2017-12-30T00:02:12.140Z,76.63
2017-12-30T00:02:52.693Z,76.82
2017-12-30T00:03:33.269Z,77.1
2017-12-30T00:04:13.829Z,76.72
2017-12-30T00:04:54.379Z,77.1
2017-12-30T00:05:34.947Z,76.91
2017-12-30T00:06:15.502Z,76.91
2017-12-30T00:06:56.066Z,76.91
2017-12-30T00:07:36.646Z,76.82
2017-12-30T00:08:17.234Z,77.29
2017-12-30T00:08:57.831Z,77.2
2017-12-30T00:09:38.420Z,77.01
2017-12-30T00:10:19.021Z,76.82
2017-12-30T00:10:59.605Z,76.91
2017-12-30T00:11:40.211Z,76.82
2017-12-30T00:12:20.784Z,76.82
2017-12-30T00:13:01.378Z,76.91
2017-12-30T00:13:41.941Z,77.48
2017-12-30T00:14:22.509Z,77.29
2017-12-30T00:15:03.100Z,77.58
2017-12-30T00:15:43.692Z,77.58
2017-12-30T00:16:24.285Z,77.48
2017-12-30T00:17:04.897Z,77.76
2017-12-30T00:17:45.475Z,77.76
2017-12-30T00:18:26.047Z,77.48
2017-12-30T00:19:06.610Z,77.48
2017-12-30T00:19:47.189Z,77.67
2017-12-30T00:20:27.757Z,77.34
2017-12-30T00:21:25.632Z,77.76
2017-12-30T00:23:38.453Z,77.2
2017-12-30T00:24:19.005Z,77.44
2017-12-30T00:24:59.568Z,77.58
2017-12-30T00:25:40.132Z,77.76
2017-12-30T00:26:20.715Z,77.29
2017-12-30T00:27:01.278Z,77.29
2017-12-30T00:27:41.855Z,77.58
2017-12-30T00:28:22.431Z,77.67
2017-12-30T00:29:03.016Z,77.44
2017-12-30T00:29:43.617Z,77.34
2017-12-30T00:30:24.174Z,77.25
2017-12-30T00:31:04.726Z,77.53
2017-12-30T00:31:45.303Z,77.48
2017-12-30T00:32:25.854Z,77.72
2017-12-30T00:33:06.416Z,77.86
2017-12-30T00:33:46.968Z,77.72
2017-12-30T00:34:27.527Z,77.63
2017-12-30T00:35:08.094Z,77.72
2017-12-30T00:35:48.657Z,77.63
2017-12-30T00:36:29.203Z,78.2
2017-12-30T00:37:09.769Z,78.39
2017-12-30T00:37:50.332Z,78.01
2017-12-30T00:38:30.890Z,78.2
2017-12-30T00:39:11.444Z,77.63
2017-12-30T00:39:52.010Z,77.63
2017-12-30T00:40:32.582Z,78.2
2017-12-30T00:41:13.130Z,78.1
2017-12-30T00:41:53.686Z,78.33
2017-12-30T00:42:34.246Z,78.01
2017-12-30T00:43:14.809Z,78.14
2017-12-30T00:43:55.369Z,77.76
2017-12-30T00:44:35.954Z,77.72
2017-12-30T00:45:16.512Z,77.72
2017-12-30T00:45:57.168Z,77.91
2017-12-30T00:46:37.733Z,77.67
2017-12-30T00:47:18.309Z,77.82
2017-12-30T00:47:58.877Z,77.53
2017-12-30T00:48:39.469Z,77.91
2017-12-30T00:49:20.020Z,77.44
2017-12-30T00:50:00.586Z,78.2
2017-12-30T00:50:41.153Z,78.2
2017-12-30T00:51:21.714Z,78.39
2017-12-30T00:52:02.287Z,78.2
2017-12-30T00:52:42.862Z,78.29
2017-12-30T00:53:23.430Z,78.29
2017-12-30T00:54:04.008Z,78.2
2017-12-30T00:54:44.564Z,78.2
2017-12-30T00:55:25.126Z,78.1
2017-12-30T00:56:05.742Z,78.1
2017-12-30T00:56:46.333Z,78.23
2017-12-30T00:57:26.920Z,78.29
2017-12-30T00:58:07.485Z,78.2
2017-12-30T00:58:48.089Z,78.2
2017-12-30T00:59:28.675Z,78.39
2017-12-30T01:00:09.231Z,78.2
2017-12-30T01:00:49.789Z,77.91
2017-12-30T01:01:30.364Z,78.2
2017-12-30T01:02:10.940Z,78.2
2017-12-30T01:02:51.502Z,78.1
2017-12-30T01:03:32.060Z,78.39
2017-12-30T01:04:12.616Z,78.76
2017-12-30T01:04:53.228Z,78.67
2017-12-30T01:05:33.785Z,78.67
2017-12-30T01:06:14.364Z,78.58
2017-12-30T01:06:54.934Z,78.58
2017-12-30T01:07:35.511Z,78.67
2017-12-30T01:08:16.108Z,78.39
2017-12-30T01:08:56.668Z,78.48
2017-12-30T01:09:37.238Z,78.39
2017-12-30T01:10:17.840Z,78.67
2017-12-30T01:10:58.432Z,78.58
2017-12-30T01:11:39.022Z,78.76
2017-12-30T01:12:19.624Z,78.58
2017-12-30T01:13:00.204Z,78.39
2017-12-30T01:13:40.742Z,78.86
2017-12-30T01:14:21.408Z,78.67
2017-12-30T01:15:02.000Z,78.58
2017-12-30T01:15:42.599Z,78.86
2017-12-30T01:16:23.178Z,78.76
2017-12-30T01:17:03.738Z,78.86
2017-12-30T01:17:44.298Z,78.86
2017-12-30T01:18:24.848Z,78.86
2017-12-30T01:19:05.399Z,78.86
2017-12-30T01:19:45.951Z,78.67
2017-12-30T01:20:26.512Z,78.76
2017-12-30T01:21:07.077Z,78.76
2017-12-30T01:21:47.642Z,79.52
2017-12-30T01:22:28.201Z,79.05
2017-12-30T01:23:08.769Z,79.14
2017-12-30T01:23:49.333Z,79.24
2017-12-30T01:24:29.895Z,79.05
2017-12-30T01:25:10.468Z,79.14
2017-12-30T01:25:51.043Z,79.14
2017-12-30T01:26:31.602Z,79.05
2017-12-30T01:27:12.154Z,79.14
2017-12-30T01:27:52.728Z,79.14
2017-12-30T01:28:33.302Z,79.14
2017-12-30T01:29:13.866Z,79.24
2017-12-30T01:29:54.420Z,79.14
2017-12-30T01:30:34.988Z,79.43
2017-12-30T01:31:15.550Z,78.95
2017-12-30T01:31:56.116Z,78.95
2017-12-30T01:32:36.683Z,79.05
2017-12-30T01:33:17.234Z,79.33
2017-12-30T01:33:57.802Z,79.52
2017-12-30T01:34:38.362Z,78.95
2017-12-30T01:35:18.931Z,79.33
2017-12-30T01:35:59.532Z,79.33
2017-12-30T01:36:40.091Z,79.14
2017-12-30T01:37:20.664Z,79.14
2017-12-30T01:38:01.249Z,79.33
2017-12-30T01:38:41.804Z,79.33
2017-12-30T01:39:22.369Z,79.43
2017-12-30T01:40:02.920Z,78.76
2017-12-30T01:40:43.496Z,78.67
2017-12-30T01:41:24.051Z,78.67
2017-12-30T01:42:04.618Z,78.95
2017-12-30T01:42:45.178Z,79.24
2017-12-30T01:43:25.768Z,79.43
2017-12-30T01:44:06.334Z,78.86
2017-12-30T01:44:46.907Z,78.58
2017-12-30T01:45:27.458Z,78.58
2017-12-30T01:46:08.041Z,78.67
2017-12-30T01:46:48.592Z,78.86
2017-12-30T01:47:29.155Z,79.05
2017-12-30T01:48:09.699Z,78.95
2017-12-30T01:48:50.293Z,78.76
2017-12-30T01:49:30.863Z,78.67
2017-12-30T01:50:11.427Z,78.86
2017-12-30T01:50:51.980Z,78.58
2017-12-30T01:51:32.571Z,78.58
2017-12-30T01:52:13.132Z,78.67
2017-12-30T01:52:53.685Z,78.67
2017-12-30T01:53:34.256Z,78.67
2017-12-30T01:54:14.825Z,78.58
2017-12-30T01:54:55.379Z,78.67
2017-12-30T01:55:35.938Z,78.58
2017-12-30T01:56:16.501Z,78.58
2017-12-30T01:56:57.080Z,78.67
2017-12-30T01:57:37.643Z,78.42
2017-12-30T01:58:18.193Z,78.67
2017-12-30T01:58:58.762Z,78.76
2017-12-30T01:59:39.319Z,78.86
2017-12-30T02:00:19.884Z,78.71
2017-12-30T02:01:00.445Z,78.52
2017-12-30T02:01:41.000Z,78.52
2017-12-30T02:02:21.574Z,78.42
2017-12-30T02:03:02.140Z,78.33
2017-12-30T02:03:42.714Z,78.05
2017-12-30T02:04:23.276Z,78.33
2017-12-30T02:05:03.867Z,77.86
2017-12-30T02:05:44.429Z,77.67
2017-12-30T02:06:25.012Z,77.39
2017-12-30T02:07:05.565Z,77.58
2017-12-30T02:07:46.127Z,77.48
2017-12-30T02:08:26.680Z,77.58
2017-12-30T02:09:07.241Z,77.67
2017-12-30T02:09:47.795Z,77.48
2017-12-30T02:10:28.365Z,77.39
2017-12-30T02:11:08.930Z,77.58
2017-12-30T02:11:49.485Z,77.48
2017-12-30T02:12:30.060Z,77.67
2017-12-30T02:13:10.622Z,77.39
2017-12-30T02:13:51.179Z,77.29
2017-12-30T02:14:31.771Z,77.01
2017-12-30T02:15:12.334Z,76.63
2017-12-30T02:15:52.896Z,76.91
2017-12-30T02:16:33.467Z,77.01
2017-12-30T02:17:14.051Z,76.91
2017-12-30T02:17:54.632Z,76.82
2017-12-30T02:18:35.202Z,76.63
2017-12-30T02:19:15.764Z,77.01
2017-12-30T02:19:56.315Z,77.01
2017-12-30T02:20:36.890Z,76.44
2017-12-30T02:21:17.448Z,76.44
2017-12-30T02:21:58.037Z,76.63
2017-12-30T02:22:38.608Z,76.63
2017-12-30T02:23:19.176Z,76.53
2017-12-30T02:23:59.727Z,76.53
2017-12-30T02:24:40.307Z,76.63
2017-12-30T02:25:20.871Z,76.44
2017-12-30T02:26:01.444Z,76.25
2017-12-30T02:26:42.013Z,76.44
2017-12-30T02:27:22.585Z,76.53
2017-12-30T02:28:03.146Z,76.34
2017-12-30T02:28:43.699Z,76.25
2017-12-30T02:29:24.253Z,76.53
2017-12-30T02:30:04.822Z,76.44
2017-12-30T02:30:45.409Z,76.44
2017-12-30T02:31:25.963Z,75.87
2017-12-30T02:32:06.556Z,76.25
2017-12-30T02:32:47.125Z,75.68
2017-12-30T02:33:27.676Z,75.59
2017-12-30T02:34:08.238Z,75.49
2017-12-30T02:34:48.808Z,75.68
2017-12-30T02:35:29.378Z,75.59
2017-12-30T02:36:09.998Z,75.87
2017-12-30T02:36:50.511Z,75.68
2017-12-30T02:37:31.077Z,75.78
2017-12-30T02:38:11.637Z,75.87
2017-12-30T02:38:52.197Z,75.21
2017-12-30T02:39:32.761Z,75.4
2017-12-30T02:40:13.369Z,75.31
2017-12-30T02:40:53.944Z,75.4
2017-12-30T02:41:34.538Z,75.59
2017-12-30T02:42:15.113Z,75.31
2017-12-30T02:42:55.686Z,75.21
2017-12-30T02:43:36.256Z,75.31
2017-12-30T02:44:16.813Z,74.74
2017-12-30T02:44:57.367Z,74.74
2017-12-30T02:45:37.919Z,74.45
2017-12-30T02:46:18.498Z,74.83
2017-12-30T02:46:59.139Z,74.83
2017-12-30T02:47:39.701Z,74.26
2017-12-30T02:48:20.266Z,74.74
2017-12-30T02:49:00.814Z,74.64
2017-12-30T02:49:41.404Z,74.83
2017-12-30T02:50:21.992Z,74.74
2017-12-30T02:51:02.563Z,74.45
2017-12-30T02:51:43.119Z,74.93
2017-12-30T02:52:23.750Z,74.45
2017-12-30T02:53:04.299Z,74.64
2017-12-30T02:53:44.898Z,74.74
2017-12-30T02:54:25.472Z,74.64
2017-12-30T02:55:06.048Z,74.93
2017-12-30T02:55:46.623Z,74.83
2017-12-30T02:56:27.211Z,74.45
2017-12-30T02:57:07.772Z,74.64
2017-12-30T02:57:48.338Z,74.26
2017-12-30T02:58:28.921Z,74.26
2017-12-30T02:59:09.447Z,74.45
2017-12-30T02:59:50.019Z,74.36
2017-12-30T03:00:30.579Z,74.17
2017-12-30T03:01:11.141Z,74.26
2017-12-30T03:01:51.881Z,74.26
2017-12-30T03:02:32.466Z,74.45
2017-12-30T03:03:13.019Z,74.26
2017-12-30T03:03:53.582Z,74.36
2017-12-30T03:04:34.146Z,74.36
2017-12-30T03:05:14.718Z,74.36
2017-12-30T03:05:55.329Z,74.36
2017-12-30T03:06:35.888Z,74.36
2017-12-30T03:07:16.485Z,74.36
2017-12-30T03:07:57.056Z,74.36
2017-12-30T03:08:37.618Z,74.07
2017-12-30T03:09:18.211Z,73.98
2017-12-30T03:09:58.763Z,74.26
2017-12-30T03:10:39.350Z,74.17
2017-12-30T03:11:19.946Z,74.17
2017-12-30T03:12:00.535Z,74.36
2017-12-30T03:12:41.106Z,74.26
2017-12-30T03:13:21.661Z,74.07
2017-12-30T03:14:02.304Z,74.17
2017-12-30T03:14:42.892Z,74.26
2017-12-30T03:15:23.437Z,74.36
2017-12-30T03:16:04.001Z,74.45
2017-12-30T03:16:44.573Z,74.36
2017-12-30T03:17:25.152Z,74.17
2017-12-30T03:18:05.775Z,74.26
2017-12-30T03:18:46.348Z,74.26
2017-12-30T03:19:26.925Z,73.98
2017-12-30T03:20:07.486Z,74.45
2017-12-30T03:20:48.056Z,74.07
2017-12-30T03:21:28.616Z,74.17
2017-12-30T03:22:09.359Z,74.26
2017-12-30T03:22:49.918Z,74.45
2017-12-30T03:23:30.634Z,74.26
2017-12-30T03:24:11.190Z,73.92
2017-12-30T03:24:51.756Z,73.88
2017-12-30T03:25:32.318Z,74.17
2017-12-30T03:26:12.952Z,73.83
2017-12-30T03:26:53.524Z,74.02
2017-12-30T03:27:34.094Z,74.07
2017-12-30T03:28:14.654Z,74.26
2017-12-30T03:28:55.206Z,74.07
2017-12-30T03:29:35.788Z,73.79
2017-12-30T03:30:16.372Z,74.17
2017-12-30T03:30:56.944Z,74.26
2017-12-30T03:31:37.535Z,74.17
2017-12-30T03:32:18.101Z,74.26
2017-12-30T03:32:58.656Z,73.98
2017-12-30T03:33:39.218Z,74.45
2017-12-30T03:34:19.814Z,74.45
2017-12-30T03:35:00.384Z,74.36
2017-12-30T03:35:40.958Z,74.17
2017-12-30T03:36:21.532Z,74.45
2017-12-30T03:37:02.109Z,74.45
2017-12-30T03:37:42.713Z,74.83
2017-12-30T03:38:23.320Z,74.74
2017-12-30T03:39:03.900Z,74.64
2017-12-30T03:39:44.463Z,74.74
2017-12-30T03:40:25.032Z,74.93
2017-12-30T03:41:05.594Z,75.4
2017-12-30T03:41:46.162Z,75.49
2017-12-30T03:42:26.739Z,75.21
2017-12-30T03:43:07.322Z,75.49
2017-12-30T03:43:47.911Z,75.4
2017-12-30T03:44:28.486Z,75.68
2017-12-30T03:45:09.073Z,75.68
2017-12-30T03:45:49.641Z,75.31
2017-12-30T03:46:30.219Z,75.78
2017-12-30T03:47:10.776Z,75.68
2017-12-30T03:47:51.361Z,75.59
2017-12-30T03:48:31.928Z,75.78
2017-12-30T03:49:12.494Z,75.68
2017-12-30T03:49:53.071Z,76.15
2017-12-30T03:50:33.638Z,76.06
2017-12-30T03:51:14.197Z,76.15
2017-12-30T03:51:54.758Z,75.96
2017-12-30T03:52:35.319Z,76.15
2017-12-30T03:53:15.887Z,75.68
2017-12-30T03:53:56.447Z,75.87
2017-12-30T03:54:37.017Z,75.87
2017-12-30T03:55:17.588Z,76.15
2017-12-30T03:55:58.158Z,76.15
2017-12-30T03:56:38.732Z,75.87
2017-12-30T03:57:19.316Z,75.78
2017-12-30T03:57:59.882Z,75.49
2017-12-30T03:58:40.456Z,75.78
2017-12-30T03:59:21.048Z,75.59
2017-12-30T04:00:01.641Z,75.31
2017-12-30T04:00:42.201Z,75.34
2017-12-30T04:01:22.764Z,75.31
2017-12-30T04:02:03.344Z,75.12
2017-12-30T04:02:43.920Z,75.49
2017-12-30T04:03:24.480Z,74.64
2017-12-30T04:04:05.071Z,74.64
2017-12-30T04:04:45.649Z,75.49
2017-12-30T04:05:26.217Z,75.68
2017-12-30T04:06:06.786Z,75.59
2017-12-30T04:06:47.353Z,75.49
2017-12-30T04:07:27.908Z,75.49
2017-12-30T04:08:08.488Z,75.49
2017-12-30T04:08:49.054Z,74.74
2017-12-30T04:09:29.617Z,74.64
2017-12-30T04:10:10.179Z,74.93
2017-12-30T04:10:50.745Z,74.77
2017-12-30T04:11:31.330Z,74.83
2017-12-30T04:12:11.925Z,74.77
2017-12-30T04:12:52.508Z,74.96
2017-12-30T04:13:33.075Z,74.55
2017-12-30T04:14:13.639Z,74.68
2017-12-30T04:14:54.200Z,74.45
2017-12-30T04:15:34.763Z,74.68
2017-12-30T04:16:15.324Z,74.93
2017-12-30T04:16:55.883Z,74.77
2017-12-30T04:17:36.501Z,74.64
2017-12-30T04:18:17.028Z,74.68
2017-12-30T04:18:57.617Z,75.24
2017-12-30T04:19:38.195Z,75.34
2017-12-30T04:20:18.757Z,75.31
2017-12-30T04:20:59.341Z,75.62
2017-12-30T04:21:39.914Z,75.53
2017-12-30T04:22:20.484Z,75.05
2017-12-30T04:23:01.074Z,74.87
2017-12-30T04:23:41.654Z,74.87
2017-12-30T04:24:22.226Z,74.77
2017-12-30T04:25:02.795Z,75.62
2017-12-30T04:25:43.358Z,75.62
2017-12-30T04:26:23.946Z,75.62
2017-12-30T04:27:04.522Z,74.68
2017-12-30T04:27:45.089Z,74.96
2017-12-30T04:28:25.666Z,75.05
2017-12-30T04:29:06.226Z,74.96
2017-12-30T04:29:46.810Z,75.05
2017-12-30T04:30:27.359Z,74.96
2017-12-30T04:31:07.918Z,74.68
2017-12-30T04:31:48.496Z,74.77
2017-12-30T04:32:29.087Z,74.21
2017-12-30T04:33:09.662Z,74.49
2017-12-30T04:33:50.260Z,74.21
2017-12-30T04:34:30.828Z,74.49
2017-12-30T04:35:11.401Z,74.77
2017-12-30T04:35:51.963Z,74.68
2017-12-30T04:36:32.519Z,74.58
2017-12-30T04:37:13.068Z,74.96
2017-12-30T04:37:53.627Z,74.68
2017-12-30T04:38:34.175Z,74.87
2017-12-30T04:39:14.758Z,74.68
2017-12-30T04:39:55.315Z,75.62
2017-12-30T04:40:35.879Z,75.62
2017-12-30T04:41:16.437Z,75.15
2017-12-30T04:41:56.999Z,75.43
2017-12-30T04:42:37.567Z,75.15
2017-12-30T04:43:18.154Z,75.24
2017-12-30T04:43:58.743Z,75.62
2017-12-30T04:44:39.293Z,75.53
2017-12-30T04:45:19.858Z,75.53
2017-12-30T04:46:00.433Z,75.43
2017-12-30T04:46:40.987Z,75.24
2017-12-30T04:47:21.547Z,75.34
2017-12-30T04:48:02.120Z,75.34
2017-12-30T04:48:42.692Z,75.15
2017-12-30T04:49:23.245Z,75.34
2017-12-30T04:50:03.798Z,75.34
2017-12-30T04:50:44.390Z,75.34
2017-12-30T04:51:24.956Z,75.24
2017-12-30T04:52:05.507Z,75.34
2017-12-30T04:52:46.061Z,75.43
2017-12-30T04:53:26.618Z,75.43
2017-12-30T04:54:07.196Z,75.34
2017-12-30T04:54:47.779Z,75.62
2017-12-30T04:55:28.349Z,75.15
2017-12-30T04:56:08.934Z,75.15
2017-12-30T04:56:49.510Z,75.34
2017-12-30T04:57:30.079Z,75.43
2017-12-30T04:58:10.634Z,75.72
2017-12-30T04:58:51.220Z,75.43
2017-12-30T04:59:31.781Z,75.34
2017-12-30T05:00:12.360Z,75.53
2017-12-30T05:00:52.918Z,75.53
2017-12-30T05:01:33.480Z,75.53
2017-12-30T05:02:14.041Z,75.43
2017-12-30T05:02:54.606Z,75.15
2017-12-30T05:03:35.178Z,75.15
2017-12-30T05:04:15.738Z,75.43
2017-12-30T05:04:56.317Z,75.43
2017-12-30T05:05:36.877Z,75.72
2017-12-30T05:06:17.439Z,75.91
2017-12-30T05:06:58.040Z,75.72
2017-12-30T05:07:38.615Z,75.91
2017-12-30T05:08:19.189Z,75.91
2017-12-30T05:08:59.759Z,75.91
2017-12-30T05:09:40.315Z,75.72
2017-12-30T05:10:20.893Z,75.72
2017-12-30T05:11:01.452Z,75.72
2017-12-30T05:11:42.047Z,75.62
2017-12-30T05:12:22.622Z,75.24
2017-12-30T05:13:03.187Z,75.15
2017-12-30T05:13:43.747Z,75.34
2017-12-30T05:14:24.323Z,75.43
2017-12-30T05:15:04.886Z,75.53
2017-12-30T05:15:45.458Z,75.43
2017-12-30T05:16:26.023Z,75.81
2017-12-30T05:17:06.615Z,75.53
2017-12-30T05:17:47.206Z,75.53
2017-12-30T05:18:27.791Z,75.91
2017-12-30T05:19:08.372Z,76.1
2017-12-30T05:19:48.954Z,76
2017-12-30T05:20:29.516Z,76
2017-12-30T05:21:10.094Z,76
2017-12-30T05:21:50.671Z,76.19
2017-12-30T05:22:31.249Z,76.19
2017-12-30T05:23:11.794Z,75.72
2017-12-30T05:23:52.399Z,75.91
2017-12-30T05:24:32.927Z,76.19
2017-12-30T05:25:13.506Z,76
2017-12-30T05:25:54.084Z,75.91
2017-12-30T05:26:34.653Z,76.1
2017-12-30T05:27:15.242Z,76.29
2017-12-30T05:27:55.840Z,76.29
2017-12-30T05:28:36.439Z,76.1
2017-12-30T05:29:17.016Z,76.19
2017-12-30T05:29:58.328Z,76
2017-12-30T05:30:39.327Z,76.1
2017-12-30T05:31:20.386Z,76.1
2017-12-30T05:32:01.493Z,75.91
2017-12-30T05:32:42.066Z,76.48
2017-12-30T05:33:22.640Z,76.19
2017-12-30T05:34:03.204Z,76.38
2017-12-30T05:34:43.778Z,76.29
2017-12-30T05:35:24.361Z,76.48
2017-12-30T05:36:04.940Z,76.48
2017-12-30T05:36:45.515Z,76.38
2017-12-30T05:37:26.076Z,76.48
2017-12-30T05:38:06.671Z,76.29
2017-12-30T05:38:47.244Z,76.48
2017-12-30T05:39:27.829Z,76.48
2017-12-30T05:40:08.396Z,76.29
2017-12-30T05:40:48.956Z,76.38
2017-12-30T05:41:29.543Z,76.38
2017-12-30T05:42:10.132Z,76.48
2017-12-30T05:42:50.698Z,76.38
2017-12-30T05:43:31.264Z,76.57
2017-12-30T05:44:11.818Z,76.29
2017-12-30T05:44:52.402Z,76.48
2017-12-30T05:45:32.958Z,76.19
2017-12-30T05:46:13.528Z,76.19
2017-12-30T05:46:54.093Z,76.1
2017-12-30T05:47:34.665Z,76.29
2017-12-30T05:48:15.230Z,75.91
2017-12-30T05:48:55.801Z,76.19
2017-12-30T05:49:36.362Z,76.19
2017-12-30T05:50:16.936Z,76.1
2017-12-30T05:50:57.511Z,76.38
2017-12-30T05:51:38.069Z,76.38
2017-12-30T05:52:18.653Z,76.19
2017-12-30T05:52:59.226Z,76.38
2017-12-30T05:53:39.813Z,75.91
2017-12-30T05:54:20.373Z,76.29
2017-12-30T05:55:00.932Z,76.19
2017-12-30T05:55:41.505Z,76.1
2017-12-30T05:56:22.077Z,76.38
2017-12-30T05:57:02.637Z,76.48
2017-12-30T05:57:43.196Z,76.57
2017-12-30T05:58:23.785Z,76.57
2017-12-30T05:59:04.353Z,76.57
2017-12-30T05:59:44.925Z,76.48
2017-12-30T06:00:25.489Z,76.38
2017-12-30T06:01:06.064Z,76.86
2017-12-30T06:01:46.632Z,76.38
2017-12-30T06:02:27.204Z,76.67
2017-12-30T06:03:07.760Z,76.57
2017-12-30T06:03:48.334Z,76.38
2017-12-30T06:04:28.893Z,76.48
2017-12-30T06:05:09.444Z,76.95
2017-12-30T06:05:49.997Z,77.04
2017-12-30T06:06:30.554Z,76.76
2017-12-30T06:07:11.131Z,76.76
2017-12-30T06:07:51.693Z,76.95
2017-12-30T06:08:32.988Z,76.67
2017-12-30T06:09:13.548Z,76.95
2017-12-30T06:09:54.121Z,76.95
2017-12-30T06:10:34.670Z,76.86
2017-12-30T06:11:15.232Z,76.86
2017-12-30T06:11:55.782Z,77.14
2017-12-30T06:12:36.348Z,77.14
2017-12-30T06:13:16.919Z,77.04
2017-12-30T06:13:57.483Z,77.33
2017-12-30T06:14:38.045Z,77.7
2017-12-30T06:15:18.608Z,77.33
2017-12-30T06:15:59.178Z,77.61
2017-12-30T06:16:39.744Z,77.61
2017-12-30T06:17:20.319Z,77.42
2017-12-30T06:18:00.896Z,77.7
2017-12-30T06:18:41.446Z,77.51
2017-12-30T06:19:22.002Z,77.42
2017-12-30T06:20:02.583Z,77.51
2017-12-30T06:20:43.167Z,77.8
2017-12-30T06:21:23.742Z,77.89
2017-12-30T06:22:04.328Z,77.8
2017-12-30T06:22:44.913Z,77.89
2017-12-30T06:23:25.492Z,77.61
2017-12-30T06:24:06.051Z,77.8
2017-12-30T06:24:46.613Z,77.7
2017-12-30T06:25:27.173Z,77.89
2017-12-30T06:26:07.723Z,78.27
2017-12-30T06:26:48.289Z,78.56
2017-12-30T06:27:28.846Z,78.46
2017-12-30T06:28:09.403Z,78.37
2017-12-30T06:28:49.980Z,78.08
2017-12-30T06:29:30.536Z,78.08
2017-12-30T06:30:11.120Z,78.08
2017-12-30T06:30:51.693Z,78.27
2017-12-30T06:31:32.266Z,78.27
2017-12-30T06:32:12.833Z,78.37
2017-12-30T06:32:53.399Z,78.22
2017-12-30T06:33:33.970Z,78.31
2017-12-30T06:34:14.536Z,78.27
2017-12-30T06:34:55.097Z,78.59
2017-12-30T06:35:35.663Z,78.65
2017-12-30T06:36:16.226Z,78.94
2017-12-30T06:36:56.789Z,78.5
2017-12-30T06:37:37.367Z,78.75
2017-12-30T06:38:17.944Z,78.65
2017-12-30T06:38:58.505Z,78.69
2017-12-30T06:39:39.065Z,78.85
2017-12-30T06:40:19.634Z,78.88
2017-12-30T06:41:00.187Z,79.03
2017-12-30T06:41:40.765Z,78.75
2017-12-30T06:42:21.324Z,78.98
2017-12-30T06:43:01.894Z,79.07
2017-12-30T06:43:42.469Z,79.17
2017-12-30T06:44:23.070Z,79.17
2017-12-30T06:45:03.633Z,79.36
2017-12-30T06:45:44.199Z,79.45
2017-12-30T06:46:24.750Z,79.64
2017-12-30T06:47:05.308Z,80.02
2017-12-30T06:47:45.870Z,79.69
2017-12-30T06:48:26.441Z,79.88
2017-12-30T06:49:07.021Z,79.98
2017-12-30T06:49:47.589Z,80.17
2017-12-30T06:50:28.149Z,79.79
2017-12-30T06:51:08.715Z,80.07
2017-12-30T06:51:49.291Z,80.45
2017-12-30T06:52:29.878Z,80.45
2017-12-30T06:53:10.441Z,80.17
2017-12-30T06:53:51.027Z,80.02
2017-12-30T06:54:31.598Z,80.4
2017-12-30T06:55:12.170Z,80.83
2017-12-30T06:55:52.724Z,80.74
2017-12-30T06:56:33.274Z,80.58
2017-12-30T06:57:13.848Z,81.06
2017-12-30T06:57:54.422Z,80.77
2017-12-30T06:58:34.984Z,80.74
2017-12-30T06:59:15.553Z,80.87
2017-12-30T06:59:56.139Z,80.83
2017-12-30T07:00:36.694Z,80.93
2017-12-30T07:01:17.268Z,80.83
2017-12-30T07:01:57.831Z,80.58
2017-12-30T07:02:38.407Z,81.06
2017-12-30T07:03:18.977Z,81.15
2017-12-30T07:03:59.580Z,81.49
2017-12-30T07:04:40.165Z,81.44
2017-12-30T07:05:20.794Z,81.25
2017-12-30T07:06:01.419Z,81.34
2017-12-30T07:06:41.981Z,81.49
2017-12-30T07:07:22.551Z,81.34
2017-12-30T07:08:03.114Z,81.72
2017-12-30T07:08:43.715Z,81.63
2017-12-30T07:09:24.281Z,81.53
2017-12-30T07:10:04.843Z,81.44
2017-12-30T07:10:45.420Z,82.01
2017-12-30T07:11:26.101Z,81.82
2017-12-30T07:12:06.632Z,82.1
2017-12-30T07:12:47.294Z,82.1
2017-12-30T07:13:27.857Z,82.1
2017-12-30T07:14:08.425Z,81.92
2017-12-30T07:14:49.004Z,82.01
2017-12-30T07:15:29.622Z,82.01
2017-12-30T07:16:10.203Z,81.92
2017-12-30T07:16:50.827Z,81.92
2017-12-30T07:17:31.410Z,82.2
2017-12-30T07:18:11.969Z,81.92
2017-12-30T07:18:52.540Z,82.01
2017-12-30T07:19:33.119Z,82.29
2017-12-30T07:20:13.697Z,82.29
2017-12-30T07:20:54.300Z,82.67
2017-12-30T07:21:34.899Z,82.2
2017-12-30T07:22:15.472Z,81.92
2017-12-30T07:22:56.037Z,81.72
2017-12-30T07:23:36.596Z,82.2
2017-12-30T07:24:17.187Z,81.72
2017-12-30T07:24:57.754Z,82.48
2017-12-30T07:25:38.309Z,82.39
2017-12-30T07:26:18.895Z,82.67
2017-12-30T07:26:59.466Z,82.39
2017-12-30T07:27:40.030Z,82.1
2017-12-30T07:28:20.592Z,82.29
2017-12-30T07:29:01.254Z,82.1
2017-12-30T07:29:41.999Z,81.92
2017-12-30T07:30:22.554Z,82.39
2017-12-30T07:31:03.131Z,82.29
2017-12-30T07:31:43.696Z,81.92
2017-12-30T07:32:24.245Z,82.29
2017-12-30T07:33:04.803Z,82.29
2017-12-30T07:33:45.359Z,82.29
2017-12-30T07:34:25.928Z,82.76
2017-12-30T07:35:06.485Z,82.57
2017-12-30T07:35:47.045Z,82.39
2017-12-30T07:36:27.610Z,82.57
2017-12-30T07:37:08.178Z,82.57
2017-12-30T07:37:48.750Z,82.48
2017-12-30T07:38:29.317Z,82.01
2017-12-30T07:39:09.887Z,82.2
2017-12-30T07:39:50.447Z,82.1
2017-12-30T07:40:31.013Z,82.2
2017-12-30T07:41:11.576Z,82.57
2017-12-30T07:41:52.148Z,82.57
2017-12-30T07:42:32.702Z,82.76
2017-12-30T07:43:13.269Z,83.33
2017-12-30T07:43:53.837Z,83.24
2017-12-30T07:44:34.405Z,83.43
2017-12-30T07:45:14.971Z,83.05
2017-12-30T07:45:56.182Z,83.14
2017-12-30T07:46:36.754Z,83.14
2017-12-30T07:47:17.320Z,83.24
2017-12-30T07:47:58.703Z,82.95
2017-12-30T07:48:39.329Z,82.95
2017-12-30T07:49:19.894Z,82.95
2017-12-30T07:50:00.481Z,82.95
2017-12-30T07:50:41.041Z,83.05
2017-12-30T07:51:22.133Z,82.86
2017-12-30T07:52:04.145Z,82.86
2017-12-30T07:52:44.488Z,83.43
2017-12-30T07:53:27.216Z,83.43
2017-12-30T07:54:11.454Z,83.43
2017-12-30T07:54:57.781Z,83.05
2017-12-30T07:55:43.281Z,83.05
2017-12-30T07:56:28.256Z,83.05
2017-12-30T07:57:13.878Z,83.05
2017-12-30T07:58:00.727Z,83.24
2017-12-30T07:58:44.349Z,82.95
2017-12-30T07:59:28.794Z,83.05
2017-12-30T08:00:10.777Z,83.05
2017-12-30T08:00:53.613Z,83.05
2017-12-30T08:01:37.330Z,82.95
2017-12-30T08:02:23.155Z,82.67
2017-12-30T08:03:07.451Z,83.14
2017-12-30T08:03:50.909Z,83.14
2017-12-30T08:04:33.800Z,83.33
2017-12-30T08:05:19.161Z,83.33
2017-12-30T08:06:01.447Z,83.52
2017-12-30T08:06:46.120Z,83.71
2017-12-30T08:07:30.777Z,83.43
2017-12-30T08:08:12.658Z,83.62
2017-12-30T08:08:55.058Z,83.52
2017-12-30T08:09:38.487Z,83.52
2017-12-30T08:10:21.444Z,83.52
2017-12-30T08:11:05.695Z,83.43
2017-12-30T08:11:51.401Z,83.52
2017-12-30T08:12:34.571Z,83.52
2017-12-30T08:13:21.711Z,83.43
2017-12-30T08:14:03.146Z,83.62
2017-12-30T08:14:45.739Z,83.71
2017-12-30T08:15:29.239Z,83.71
2017-12-30T08:16:14.130Z,83.52
2017-12-30T08:16:58.251Z,83.43
2017-12-30T08:17:43.569Z,83.43
2017-12-30T08:18:27.286Z,84.09
2017-12-30T08:19:12.433Z,83.81
2017-12-30T08:19:56.158Z,84
2017-12-30T08:20:41.083Z,83.62
2017-12-30T08:21:23.849Z,83.71
2017-12-30T08:22:08.744Z,83.81
2017-12-30T08:22:51.172Z,83.81
2017-12-30T08:23:34.500Z,84.09
2017-12-30T08:24:18.228Z,83.9
2017-12-30T08:25:03.410Z,83.71
2017-12-30T08:25:48.638Z,83.81
2017-12-30T08:26:32.380Z,84.28
2017-12-30T08:27:17.246Z,84.19
2017-12-30T08:28:00.612Z,84.19
2017-12-30T08:28:43.402Z,84.28
2017-12-30T08:29:26.889Z,84.28
2017-12-30T08:30:11.790Z,84.09
2017-12-30T08:30:55.830Z,84
2017-12-30T08:31:36.392Z,83.9
2017-12-30T08:32:16.956Z,84.19
2017-12-30T08:32:57.536Z,84.09
2017-12-30T08:33:38.109Z,84
2017-12-30T08:34:18.682Z,84
2017-12-30T08:34:59.277Z,84.19
2017-12-30T08:35:39.851Z,84.19
2017-12-30T08:36:20.413Z,84.19
2017-12-30T08:37:00.973Z,83.71
2017-12-30T08:37:41.527Z,83.81
2017-12-30T08:38:22.127Z,84.28
2017-12-30T08:39:02.704Z,84.19
2017-12-30T08:39:43.287Z,84.09
2017-12-30T08:40:23.905Z,84.09
2017-12-30T08:41:04.465Z,84.19
2017-12-30T08:41:45.036Z,84.28
2017-12-30T08:42:25.600Z,83.9
2017-12-30T08:43:06.163Z,83.81
2017-12-30T08:43:46.730Z,84
2017-12-30T08:44:27.303Z,83.9
2017-12-30T08:45:07.867Z,83.81
2017-12-30T08:45:48.464Z,83.81
2017-12-30T08:46:29.040Z,83.71
2017-12-30T08:47:09.616Z,83.9
2017-12-30T08:47:50.217Z,83.9
2017-12-30T08:48:30.773Z,84.19
2017-12-30T08:49:11.341Z,84.28